sensor_id;sensor_type;location;lat;lon;timestamp;temperature;humidity
69006;SHT31;56061;51.748;19.620;2023-02-28T13:27:17;2.99;58.25
69006;SHT31;56061;51.748;19.620;2023-02-28T13:29:59;3.07;58.28
69006;SHT31;56061;51.748;19.620;2023-02-28T13:32:28;3.09;58.14
69006;SHT31;56061;51.748;19.620;2023-02-28T13:39:52;3.16;58.59
69006;SHT31;56061;51.748;19.620;2023-02-28T13:53:05;3.46;57.97
69006;SHT31;56061;51.748;19.620;2023-02-28T13:58:41;3.51;57.08
69006;SHT31;56061;51.748;19.620;2023-02-28T14:07:02;3.53;56.96
69006;SHT31;56061;51.748;19.620;2023-02-28T14:09:35;3.54;56.97
69006;SHT31;56061;51.748;19.620;2023-02-28T14:18:17;3.67;56.50
69006;SHT31;56061;51.748;19.620;2023-02-28T14:21:03;3.69;56.36
69006;SHT31;56061;51.748;19.620;2023-02-28T14:36:08;3.75;55.68
69006;SHT31;56061;51.748;19.620;2023-02-28T14:38:45;3.83;55.94
69006;SHT31;56061;51.748;19.620;2023-02-28T14:41:23;3.88;55.91
69006;SHT31;56061;51.748;19.620;2023-02-28T14:43:59;3.94;55.76
69006;SHT31;56061;51.748;19.620;2023-02-28T14:46:37;3.98;55.66
69006;SHT31;56061;51.748;19.620;2023-02-28T14:49:18;4.05;55.56
69006;SHT31;56061;51.748;19.620;2023-02-28T14:52:17;4.07;55.03
69006;SHT31;56061;51.748;19.620;2023-02-28T14:55:24;4.04;53.94
69006;SHT31;56061;51.748;19.620;2023-02-28T15:00:28;3.92;54.80
69006;SHT31;56061;51.748;19.620;2023-02-28T15:02:58;3.89;54.99
69006;SHT31;56061;51.748;19.620;2023-02-28T15:05:28;3.84;53.87
69006;SHT31;56061;51.748;19.620;2023-02-28T15:08:06;3.78;54.35
69006;SHT31;56061;51.748;19.620;2023-02-28T15:10:33;3.78;54.40
69006;SHT31;56061;51.748;19.620;2023-02-28T15:13:07;3.75;54.30
69006;SHT31;56061;51.748;19.620;2023-02-28T15:26:34;3.66;54.76
69006;SHT31;56061;51.748;19.620;2023-02-28T15:29:08;3.60;54.86
69006;SHT31;56061;51.748;19.620;2023-02-28T15:31:47;3.55;54.65
69006;SHT31;56061;51.748;19.620;2023-02-28T15:34:27;3.48;54.77
69006;SHT31;56061;51.748;19.620;2023-02-28T15:37:25;3.40;54.92
69006;SHT31;56061;51.748;19.620;2023-02-28T15:39:53;3.33;55.23
69006;SHT31;56061;51.748;19.620;2023-02-28T15:42:23;3.24;55.50
69006;SHT31;56061;51.748;19.620;2023-02-28T15:44:55;3.16;55.80
69006;SHT31;56061;51.748;19.620;2023-02-28T15:47:24;3.06;56.37
69006;SHT31;56061;51.748;19.620;2023-02-28T15:49:58;2.96;56.17
69006;SHT31;56061;51.748;19.620;2023-02-28T15:52:38;2.86;56.40
69006;SHT31;56061;51.748;19.620;2023-02-28T15:55:19;2.76;56.74
69006;SHT31;56061;51.748;19.620;2023-02-28T15:57:50;2.62;57.18
69006;SHT31;56061;51.748;19.620;2023-02-28T16:00:22;2.51;57.11
69006;SHT31;56061;51.748;19.620;2023-02-28T16:02:52;2.41;57.11
69006;SHT31;56061;51.748;19.620;2023-02-28T16:05:21;2.29;57.75
69006;SHT31;56061;51.748;19.620;2023-02-28T16:07:55;2.15;58.38
69006;SHT31;56061;51.748;19.620;2023-02-28T16:10:24;2.01;58.52
69006;SHT31;56061;51.748;19.620;2023-02-28T16:12:54;1.87;58.66
69006;SHT31;56061;51.748;19.620;2023-02-28T16:18:01;1.56;59.18
69006;SHT31;56061;51.748;19.620;2023-02-28T16:20:29;1.39;59.54
69006;SHT31;56061;51.748;19.620;2023-02-28T16:22:57;1.20;59.85
69006;SHT31;56061;51.748;19.620;2023-02-28T16:25:35;1.02;60.92
69006;SHT31;56061;51.748;19.620;2023-02-28T16:28:18;0.86;62.22
69006;SHT31;56061;51.748;19.620;2023-02-28T16:30:51;0.72;63.10
69006;SHT31;56061;51.748;19.620;2023-02-28T16:33:18;0.59;63.89
69006;SHT31;56061;51.748;19.620;2023-02-28T16:35:45;0.49;64.41
69006;SHT31;56061;51.748;19.620;2023-02-28T16:38:11;0.40;64.83
69006;SHT31;56061;51.748;19.620;2023-02-28T16:40:37;0.32;65.31
69006;SHT31;56061;51.748;19.620;2023-02-28T16:43:05;0.23;65.72
69006;SHT31;56061;51.748;19.620;2023-02-28T16:45:42;0.15;66.10
69006;SHT31;56061;51.748;19.620;2023-02-28T16:48:12;0.09;66.59
69006;SHT31;56061;51.748;19.620;2023-02-28T16:50:42;0.01;66.77
69006;SHT31;56061;51.748;19.620;2023-02-28T16:53:12;-0.05;67.09
69006;SHT31;56061;51.748;19.620;2023-02-28T16:55:39;-0.11;67.28
69006;SHT31;56061;51.748;19.620;2023-02-28T16:58:06;-0.16;67.52
69006;SHT31;56061;51.748;19.620;2023-02-28T17:00:33;-0.22;67.94
69006;SHT31;56061;51.748;19.620;2023-02-28T17:02:59;-0.26;68.03
69006;SHT31;56061;51.748;19.620;2023-02-28T17:05:33;-0.31;68.27
69006;SHT31;56061;51.748;19.620;2023-02-28T17:08:05;-0.37;68.46
69006;SHT31;56061;51.748;19.620;2023-02-28T17:10:32;-0.41;68.63
69006;SHT31;56061;51.748;19.620;2023-02-28T17:12:58;-0.45;68.81
69006;SHT31;56061;51.748;19.620;2023-02-28T17:15:39;-0.48;69.14
69006;SHT31;56061;51.748;19.620;2023-02-28T17:18:08;-0.48;69.31
69006;SHT31;56061;51.748;19.620;2023-02-28T17:20:45;-0.49;69.49
69006;SHT31;56061;51.748;19.620;2023-02-28T17:23:13;-0.51;69.65
69006;SHT31;56061;51.748;19.620;2023-02-28T17:25:39;-0.53;69.80
69006;SHT31;56061;51.748;19.620;2023-02-28T17:28:06;-0.56;69.94
69006;SHT31;56061;51.748;19.620;2023-02-28T17:30:33;-0.61;70.04
69006;SHT31;56061;51.748;19.620;2023-02-28T17:33:00;-0.66;70.12
69006;SHT31;56061;51.748;19.620;2023-02-28T17:35:27;-0.71;70.24
69006;SHT31;56061;51.748;19.620;2023-02-28T17:37:53;-0.75;70.30
69006;SHT31;56061;51.748;19.620;2023-02-28T17:40:21;-0.80;70.43
69006;SHT31;56061;51.748;19.620;2023-02-28T17:42:50;-0.83;70.53
69006;SHT31;56061;51.748;19.620;2023-02-28T17:45:18;-0.88;70.70
69006;SHT31;56061;51.748;19.620;2023-02-28T17:47:47;-0.92;70.88
69006;SHT31;56061;51.748;19.620;2023-02-28T17:50:17;-0.96;71.05
69006;SHT31;56061;51.748;19.620;2023-02-28T17:52:47;-1.00;71.20
69006;SHT31;56061;51.748;19.620;2023-02-28T17:55:16;-1.05;71.33
69006;SHT31;56061;51.748;19.620;2023-02-28T17:57:45;-1.10;71.51
69006;SHT31;56061;51.748;19.620;2023-02-28T18:00:12;-1.15;71.66
69006;SHT31;56061;51.748;19.620;2023-02-28T18:02:42;-1.15;71.77
69006;SHT31;56061;51.748;19.620;2023-02-28T18:05:10;-1.16;71.86
69006;SHT31;56061;51.748;19.620;2023-02-28T18:07:37;-1.15;71.88
69006;SHT31;56061;51.748;19.620;2023-02-28T18:10:06;-1.13;72.02
69006;SHT31;56061;51.748;19.620;2023-02-28T18:12:41;-1.11;72.00
69006;SHT31;56061;51.748;19.620;2023-02-28T18:15:07;-1.11;72.10
69006;SHT31;56061;51.748;19.620;2023-02-28T18:17:34;-1.13;71.82
69006;SHT31;56061;51.748;19.620;2023-02-28T18:20:01;-1.18;71.86
69006;SHT31;56061;51.748;19.620;2023-02-28T18:22:29;-1.22;71.91
69006;SHT31;56061;51.748;19.620;2023-02-28T18:24:56;-1.30;71.98
69006;SHT31;56061;51.748;19.620;2023-02-28T18:27:22;-1.37;72.12
69006;SHT31;56061;51.748;19.620;2023-02-28T18:29:49;-1.43;72.48
69006;SHT31;56061;51.748;19.620;2023-02-28T18:32:17;-1.49;72.39
69006;SHT31;56061;51.748;19.620;2023-02-28T18:34:44;-1.58;72.28
69006;SHT31;56061;51.748;19.620;2023-02-28T18:37:10;-1.65;72.56
69006;SHT31;56061;51.748;19.620;2023-02-28T18:39:37;-1.70;73.00
69006;SHT31;56061;51.748;19.620;2023-02-28T18:42:04;-1.77;73.30
69006;SHT31;56061;51.748;19.620;2023-02-28T18:44:30;-1.82;73.60
69006;SHT31;56061;51.748;19.620;2023-02-28T18:46:56;-1.87;73.81
69006;SHT31;56061;51.748;19.620;2023-02-28T18:49:23;-1.90;73.89
69006;SHT31;56061;51.748;19.620;2023-02-28T18:51:49;-1.92;74.03
69006;SHT31;56061;51.748;19.620;2023-02-28T18:54:16;-1.93;74.08
69006;SHT31;56061;51.748;19.620;2023-02-28T18:56:43;-1.93;74.23
69006;SHT31;56061;51.748;19.620;2023-02-28T18:59:10;-1.92;74.37
69006;SHT31;56061;51.748;19.620;2023-02-28T19:01:37;-1.91;74.88
69006;SHT31;56061;51.748;19.620;2023-02-28T19:04:05;-1.91;74.64
69006;SHT31;56061;51.748;19.620;2023-02-28T19:06:32;-1.94;74.51
69006;SHT31;56061;51.748;19.620;2023-02-28T19:09:01;-1.99;74.80
69006;SHT31;56061;51.748;19.620;2023-02-28T19:11:29;-2.01;75.02
69006;SHT31;56061;51.748;19.620;2023-02-28T19:13:57;-2.05;74.97
69006;SHT31;56061;51.748;19.620;2023-02-28T19:16:24;-2.09;75.02
69006;SHT31;56061;51.748;19.620;2023-02-28T19:18:51;-2.13;74.78
69006;SHT31;56061;51.748;19.620;2023-02-28T19:21:18;-2.19;74.70
69006;SHT31;56061;51.748;19.620;2023-02-28T19:23:47;-2.24;74.77
69006;SHT31;56061;51.748;19.620;2023-02-28T19:26:15;-2.29;75.13
69006;SHT31;56061;51.748;19.620;2023-02-28T19:28:45;-2.33;75.46
69006;SHT31;56061;51.748;19.620;2023-02-28T19:31:12;-2.37;75.75
69006;SHT31;56061;51.748;19.620;2023-02-28T19:33:51;-2.39;75.82
69006;SHT31;56061;51.748;19.620;2023-02-28T19:36:18;-2.42;75.96
69006;SHT31;56061;51.748;19.620;2023-02-28T19:38:45;-2.44;75.96
69006;SHT31;56061;51.748;19.620;2023-02-28T19:41:13;-2.45;75.92
69006;SHT31;56061;51.748;19.620;2023-02-28T19:43:41;-2.46;75.78
69006;SHT31;56061;51.748;19.620;2023-02-28T19:46:08;-2.49;75.67
69006;SHT31;56061;51.748;19.620;2023-02-28T19:48:37;-2.52;75.70
69006;SHT31;56061;51.748;19.620;2023-02-28T19:51:05;-2.54;75.87
69006;SHT31;56061;51.748;19.620;2023-02-28T19:53:36;-2.55;76.12
69006;SHT31;56061;51.748;19.620;2023-02-28T19:56:05;-2.57;76.06
69006;SHT31;56061;51.748;19.620;2023-02-28T19:58:33;-2.62;76.11
69006;SHT31;56061;51.748;19.620;2023-02-28T20:01:11;-2.65;76.35
69006;SHT31;56061;51.748;19.620;2023-02-28T20:03:41;-2.69;76.33
69006;SHT31;56061;51.748;19.620;2023-02-28T20:06:10;-2.74;76.29
69006;SHT31;56061;51.748;19.620;2023-02-28T20:08:40;-2.80;76.39
69006;SHT31;56061;51.748;19.620;2023-02-28T20:11:08;-2.86;76.56
69006;SHT31;56061;51.748;19.620;2023-02-28T20:13:38;-2.92;76.59
69006;SHT31;56061;51.748;19.620;2023-02-28T20:16:06;-2.97;76.73
69006;SHT31;56061;51.748;19.620;2023-02-28T20:18:36;-3.04;76.82
69006;SHT31;56061;51.748;19.620;2023-02-28T20:21:09;-3.11;77.07
69006;SHT31;56061;51.748;19.620;2023-02-28T20:23:37;-3.15;77.03
69006;SHT31;56061;51.748;19.620;2023-02-28T20:26:05;-3.16;77.12
69006;SHT31;56061;51.748;19.620;2023-02-28T20:28:32;-3.18;77.01
69006;SHT31;56061;51.748;19.620;2023-02-28T20:30:59;-3.16;77.27
69006;SHT31;56061;51.748;19.620;2023-02-28T20:33:26;-3.13;77.41
69006;SHT31;56061;51.748;19.620;2023-02-28T20:35:59;-3.08;77.51
69006;SHT31;56061;51.748;19.620;2023-02-28T20:38:27;-3.03;77.68
69006;SHT31;56061;51.748;19.620;2023-02-28T20:40:54;-3.00;77.73
69006;SHT31;56061;51.748;19.620;2023-02-28T20:43:23;-2.99;77.85
69006;SHT31;56061;51.748;19.620;2023-02-28T20:45:51;-2.99;77.88
69006;SHT31;56061;51.748;19.620;2023-02-28T20:48:23;-3.01;77.93
69006;SHT31;56061;51.748;19.620;2023-02-28T20:50:51;-3.04;77.99
69006;SHT31;56061;51.748;19.620;2023-02-28T20:53:20;-3.10;78.10
69006;SHT31;56061;51.748;19.620;2023-02-28T20:56:22;-3.18;78.34
69006;SHT31;56061;51.748;19.620;2023-02-28T20:58:45;-3.27;78.62
69006;SHT31;56061;51.748;19.620;2023-02-28T21:01:22;-3.35;78.77
69006;SHT31;56061;51.748;19.620;2023-02-28T21:03:59;-3.38;78.99
69006;SHT31;56061;51.748;19.620;2023-02-28T21:06:35;-3.38;79.10
69006;SHT31;56061;51.748;19.620;2023-02-28T21:09:04;-3.37;79.11
69006;SHT31;56061;51.748;19.620;2023-02-28T21:11:34;-3.35;79.00
69006;SHT31;56061;51.748;19.620;2023-02-28T21:14:04;-3.34;79.00
69006;SHT31;56061;51.748;19.620;2023-02-28T21:16:38;-3.32;79.42
69006;SHT31;56061;51.748;19.620;2023-02-28T21:19:06;-3.31;79.53
69006;SHT31;56061;51.748;19.620;2023-02-28T21:21:33;-3.28;79.72
69006;SHT31;56061;51.748;19.620;2023-02-28T21:24:04;-3.27;79.71
69006;SHT31;56061;51.748;19.620;2023-02-28T21:26:32;-3.28;79.55
69006;SHT31;56061;51.748;19.620;2023-02-28T21:28:59;-3.29;79.70
69006;SHT31;56061;51.748;19.620;2023-02-28T21:31:28;-3.30;79.80
69006;SHT31;56061;51.748;19.620;2023-02-28T21:33:58;-3.32;80.06
69006;SHT31;56061;51.748;19.620;2023-02-28T21:36:28;-3.34;80.00
69006;SHT31;56061;51.748;19.620;2023-02-28T21:38:59;-3.36;79.88
69006;SHT31;56061;51.748;19.620;2023-02-28T21:41:34;-3.38;79.73
69006;SHT31;56061;51.748;19.620;2023-02-28T21:44:02;-3.37;79.85
69006;SHT31;56061;51.748;19.620;2023-02-28T21:46:28;-3.36;79.84
69006;SHT31;56061;51.748;19.620;2023-02-28T21:48:56;-3.34;79.90
69006;SHT31;56061;51.748;19.620;2023-02-28T21:51:27;-3.32;79.90
69006;SHT31;56061;51.748;19.620;2023-02-28T21:53:57;-3.33;79.89
69006;SHT31;56061;51.748;19.620;2023-02-28T21:56:26;-3.33;79.90
69006;SHT31;56061;51.748;19.620;2023-02-28T21:58:56;-3.35;79.84
69006;SHT31;56061;51.748;19.620;2023-02-28T22:01:27;-3.37;79.80
69006;SHT31;56061;51.748;19.620;2023-02-28T22:04:06;-3.40;79.74
69006;SHT31;56061;51.748;19.620;2023-02-28T22:06:37;-3.46;79.70
69006;SHT31;56061;51.748;19.620;2023-02-28T22:09:06;-3.53;79.62
69006;SHT31;56061;51.748;19.620;2023-02-28T22:11:35;-3.62;79.63
69006;SHT31;56061;51.748;19.620;2023-02-28T22:14:04;-3.69;79.85
69006;SHT31;56061;51.748;19.620;2023-02-28T22:16:32;-3.77;79.84
69006;SHT31;56061;51.748;19.620;2023-02-28T22:19:16;-3.86;79.65
69006;SHT31;56061;51.748;19.620;2023-02-28T22:21:44;-3.92;79.77
69006;SHT31;56061;51.748;19.620;2023-02-28T22:24:12;-3.95;79.75
69006;SHT31;56061;51.748;19.620;2023-02-28T22:26:40;-3.96;80.09
69006;SHT31;56061;51.748;19.620;2023-02-28T22:29:07;-3.96;80.12
69006;SHT31;56061;51.748;19.620;2023-02-28T22:31:34;-3.93;80.42
69006;SHT31;56061;51.748;19.620;2023-02-28T22:34:03;-3.88;80.77
69006;SHT31;56061;51.748;19.620;2023-02-28T22:36:34;-3.85;80.59
69006;SHT31;56061;51.748;19.620;2023-02-28T22:39:01;-3.82;80.58
69006;SHT31;56061;51.748;19.620;2023-02-28T22:41:29;-3.81;80.43
69006;SHT31;56061;51.748;19.620;2023-02-28T22:43:58;-3.83;80.21
69006;SHT31;56061;51.748;19.620;2023-02-28T22:46:28;-3.84;80.01
69006;SHT31;56061;51.748;19.620;2023-02-28T22:48:59;-3.89;79.80
69006;SHT31;56061;51.748;19.620;2023-02-28T22:51:28;-3.93;80.00
69006;SHT31;56061;51.748;19.620;2023-02-28T22:53:55;-3.96;79.97
69006;SHT31;56061;51.748;19.620;2023-02-28T22:56:24;-3.99;80.30
69006;SHT31;56061;51.748;19.620;2023-02-28T22:58:55;-4.03;80.49
69006;SHT31;56061;51.748;19.620;2023-02-28T23:01:25;-4.05;80.73
69006;SHT31;56061;51.748;19.620;2023-02-28T23:03:55;-4.05;80.93
69006;SHT31;56061;51.748;19.620;2023-02-28T23:06:23;-4.07;80.74
69006;SHT31;56061;51.748;19.620;2023-02-28T23:08:58;-4.08;80.47
69006;SHT31;56061;51.748;19.620;2023-02-28T23:11:30;-4.07;80.28
69006;SHT31;56061;51.748;19.620;2023-02-28T23:14:00;-4.07;80.08
69006;SHT31;56061;51.748;19.620;2023-02-28T23:16:33;-4.06;80.11
69006;SHT31;56061;51.748;19.620;2023-02-28T23:19:04;-4.07;80.10
69006;SHT31;56061;51.748;19.620;2023-02-28T23:21:36;-4.10;80.14
69006;SHT31;56061;51.748;19.620;2023-02-28T23:24:05;-4.12;80.26
69006;SHT31;56061;51.748;19.620;2023-02-28T23:26:36;-4.16;80.22
69006;SHT31;56061;51.748;19.620;2023-02-28T23:29:05;-4.21;80.11
69006;SHT31;56061;51.748;19.620;2023-02-28T23:31:31;-4.26;80.01
69006;SHT31;56061;51.748;19.620;2023-02-28T23:33:59;-4.28;80.19
69006;SHT31;56061;51.748;19.620;2023-02-28T23:36:25;-4.30;80.37
69006;SHT31;56061;51.748;19.620;2023-02-28T23:38:52;-4.33;80.51
69006;SHT31;56061;51.748;19.620;2023-02-28T23:41:19;-4.36;80.65
69006;SHT31;56061;51.748;19.620;2023-02-28T23:43:48;-4.37;80.76
69006;SHT31;56061;51.748;19.620;2023-02-28T23:46:17;-4.40;80.87
69006;SHT31;56061;51.748;19.620;2023-02-28T23:48:45;-4.42;80.99
69006;SHT31;56061;51.748;19.620;2023-02-28T23:51:16;-4.43;80.99
69006;SHT31;56061;51.748;19.620;2023-02-28T23:53:47;-4.43;81.03
69006;SHT31;56061;51.748;19.620;2023-02-28T23:56:24;-4.44;80.89
69006;SHT31;56061;51.748;19.620;2023-02-28T23:58:51;-4.45;80.75
